createdAt,value
2023-04-18T00:09:15.638Z,1028.38
2023-04-18T00:19:20.941Z,1028.39
2023-04-18T00:29:26.069Z,1028.45
2023-04-18T00:39:31.469Z,1028.51
2023-04-18T00:49:36.824Z,1028.42
2023-04-18T00:59:42.498Z,1028.37
2023-04-18T01:09:47.952Z,1028.36
2023-04-18T01:19:53.605Z,1028.39
2023-04-18T01:29:59.435Z,1028.50
2023-04-18T01:40:04.783Z,1028.42
2023-04-18T01:50:09.973Z,1028.38
2023-04-18T02:00:15.026Z,1028.35
2023-04-18T02:10:20.308Z,1028.28
2023-04-18T02:20:25.529Z,1028.33
2023-04-18T02:30:30.778Z,1028.41
2023-04-18T02:40:36.028Z,1028.40
2023-04-18T02:50:41.517Z,1028.39
2023-04-18T03:00:46.564Z,1028.42
2023-04-18T03:10:51.706Z,1028.47
2023-04-18T03:20:57.336Z,1028.49
2023-04-18T03:31:02.815Z,1028.46
2023-04-18T03:41:08.321Z,1028.49
2023-04-18T03:51:13.389Z,1028.49
2023-04-18T04:02:37.938Z,1028.53
2023-04-18T04:12:42.701Z,1028.60
2023-04-18T04:22:48.014Z,1028.73
2023-04-18T04:32:54.065Z,1028.74
2023-04-18T04:44:18.835Z,1028.85
2023-04-18T04:54:23.246Z,1028.81
2023-04-18T05:04:28.477Z,1028.93
2023-04-18T05:14:33.785Z,1028.93
2023-04-18T05:24:39.372Z,1029.00
2023-04-18T05:34:44.871Z,1028.98
2023-04-18T05:44:50.185Z,1029.05
2023-04-18T05:54:55.505Z,1029.04
2023-04-18T06:05:00.907Z,1029.08
2023-04-18T06:15:06.758Z,1029.14
2023-04-18T06:25:12.151Z,1029.18
2023-04-18T06:35:17.504Z,1029.23
2023-04-18T06:45:22.748Z,1029.27
2023-04-18T06:55:27.998Z,1029.33
2023-04-18T07:05:33.225Z,1029.32
2023-04-18T07:15:38.784Z,1029.31
2023-04-18T07:25:44.325Z,1029.35
2023-04-18T07:35:49.854Z,1029.43
2023-04-18T07:45:55.303Z,1029.42
2023-04-18T07:56:00.499Z,1029.47
2023-04-18T08:06:05.841Z,1029.45
2023-04-18T08:16:11.326Z,1029.39
2023-04-18T08:26:17.868Z,1029.50
2023-04-18T08:36:22.748Z,1029.52
2023-04-18T08:46:28.051Z,1029.45
2023-04-18T08:56:33.844Z,1029.43
2023-04-18T09:06:39.195Z,1029.50
2023-04-18T09:16:44.485Z,1029.46
2023-04-18T09:26:49.626Z,1029.45
2023-04-18T09:36:55.388Z,1029.43
2023-04-18T09:47:00.652Z,1029.45
2023-04-18T09:57:05.499Z,1029.42
2023-04-18T10:07:11.130Z,1029.40
2023-04-18T10:17:16.618Z,1029.32
2023-04-18T10:27:21.941Z,1029.31
2023-04-18T10:37:27.013Z,1029.33
2023-04-18T10:47:32.522Z,1029.33
2023-04-18T10:57:38.218Z,1029.31
2023-04-18T11:07:43.605Z,1029.32
2023-04-18T11:17:49.123Z,1029.30
2023-04-18T11:27:53.971Z,1029.24
2023-04-18T11:37:59.750Z,1029.14
2023-04-18T11:48:05.191Z,1029.13
2023-04-18T11:58:10.874Z,1029.08
2023-04-18T12:08:16.341Z,1029.12
2023-04-18T12:18:21.796Z,1029.11
2023-04-18T12:28:27.347Z,1029.11
2023-04-18T12:38:33.241Z,1029.06
2023-04-18T12:48:38.850Z,1029.05
2023-04-18T12:58:44.574Z,1028.97
2023-04-18T13:08:50.095Z,1028.91
2023-04-18T13:18:55.276Z,1028.81
2023-04-18T13:29:01.154Z,1028.76
2023-04-18T13:39:06.703Z,1028.77
2023-04-18T13:49:12.360Z,1028.71
2023-04-18T13:59:17.887Z,1028.63
2023-04-18T14:09:23.233Z,1028.60
2023-04-18T14:19:28.850Z,1028.61
2023-04-18T14:29:34.466Z,1028.50
2023-04-18T14:39:39.443Z,1028.44
2023-04-18T14:49:44.862Z,1028.35
2023-04-18T14:59:51.186Z,1028.35
2023-04-18T15:09:56.744Z,1028.22
2023-04-18T15:20:02.478Z,1028.29
2023-04-18T15:30:08.284Z,1028.20
2023-04-18T15:40:13.939Z,1028.21
2023-04-18T15:51:38.980Z,1028.22
2023-04-18T16:01:45.857Z,1028.23
2023-04-18T16:11:52.104Z,1028.21
2023-04-18T16:21:57.487Z,1028.22
2023-04-18T16:32:02.559Z,1028.23
2023-04-18T16:42:08.077Z,1028.27
2023-04-18T16:52:13.806Z,1028.27
2023-04-18T17:02:19.852Z,1028.30
2023-04-18T17:12:25.501Z,1028.33
2023-04-18T17:22:30.963Z,1028.44
2023-04-18T17:32:36.685Z,1028.45
2023-04-18T17:42:42.128Z,1028.52
2023-04-18T17:52:47.802Z,1028.56
2023-04-18T18:02:53.641Z,1028.68
2023-04-18T18:12:59.465Z,1028.78
2023-04-18T18:23:04.932Z,1028.88
2023-04-18T18:33:10.487Z,1028.93
2023-04-18T18:43:16.269Z,1029.03
2023-04-18T18:53:22.769Z,1029.15
2023-04-18T19:03:28.614Z,1029.15
2023-04-18T19:13:35.412Z,1029.20
2023-04-18T19:23:41.375Z,1029.31
2023-04-18T19:33:47.199Z,1029.27
2023-04-18T19:43:52.773Z,1029.22
2023-04-18T19:53:58.558Z,1029.20
2023-04-18T20:04:04.201Z,1029.21
2023-04-18T20:14:09.761Z,1029.19
2023-04-18T20:24:15.269Z,1029.20
2023-04-18T20:34:21.585Z,1029.21
2023-04-18T20:44:27.081Z,1029.18
2023-04-18T20:54:32.672Z,1029.19
2023-04-18T21:04:38.189Z,1029.23
2023-04-18T21:14:44.170Z,1029.21
2023-04-18T21:24:49.523Z,1029.20
2023-04-18T21:34:55.816Z,1029.15
2023-04-18T21:45:01.188Z,1029.11
2023-04-18T21:55:06.715Z,1029.17
2023-04-18T22:05:12.113Z,1029.15
2023-04-18T22:15:17.860Z,1029.04
2023-04-18T22:25:23.693Z,1029.03
2023-04-18T22:35:28.962Z,1028.88
2023-04-18T22:45:34.480Z,1028.84
2023-04-18T22:55:39.608Z,1028.73
2023-04-18T23:05:45.240Z,1028.65
2023-04-18T23:15:50.897Z,1028.58
2023-04-18T23:25:56.328Z,1028.65
2023-04-18T23:36:01.486Z,1028.57
2023-04-18T23:46:07.348Z,1028.56
2023-04-18T23:56:12.640Z,1028.50
